sensor_id;sensor_type;location;lat;lon;timestamp;P1;durP1;ratioP1;P2;durP2;ratioP2
65597;SDS011;52267;51.984;20.956;2023-02-15T00:00:05;44.30;;;20.90;;
65597;SDS011;52267;51.984;20.956;2023-02-15T00:05:23;45.00;;;21.80;;
65597;SDS011;52267;51.984;20.956;2023-02-15T00:07:50;48.60;;;22.00;;
65597;SDS011;52267;51.984;20.956;2023-02-15T00:10:17;46.00;;;22.10;;
65597;SDS011;52267;51.984;20.956;2023-02-15T00:12:45;46.00;;;21.70;;
65597;SDS011;52267;51.984;20.956;2023-02-15T00:15:12;49.90;;;23.30;;
65597;SDS011;52267;51.984;20.956;2023-02-15T00:17:39;57.90;;;23.00;;
65597;SDS011;52267;51.984;20.956;2023-02-15T00:20:06;52.50;;;21.70;;
65597;SDS011;52267;51.984;20.956;2023-02-15T00:22:34;49.20;;;24.30;;
65597;SDS011;52267;51.984;20.956;2023-02-15T00:25:01;44.90;;;22.10;;
65597;SDS011;52267;51.984;20.956;2023-02-15T00:27:28;45.70;;;20.30;;
65597;SDS011;52267;51.984;20.956;2023-02-15T00:29:55;47.90;;;22.00;;
65597;SDS011;52267;51.984;20.956;2023-02-15T00:32:22;55.20;;;23.90;;
65597;SDS011;52267;51.984;20.956;2023-02-15T00:34:49;46.40;;;21.90;;
65597;SDS011;52267;51.984;20.956;2023-02-15T00:37:16;48.60;;;22.40;;
65597;SDS011;52267;51.984;20.956;2023-02-15T00:39:43;48.40;;;21.30;;
65597;SDS011;52267;51.984;20.956;2023-02-15T00:42:10;46.90;;;21.60;;
65597;SDS011;52267;51.984;20.956;2023-02-15T00:44:37;45.60;;;21.70;;
65597;SDS011;52267;51.984;20.956;2023-02-15T00:47:04;46.70;;;22.30;;
65597;SDS011;52267;51.984;20.956;2023-02-15T00:49:31;46.80;;;21.00;;
65597;SDS011;52267;51.984;20.956;2023-02-15T00:51:58;40.80;;;19.10;;
65597;SDS011;52267;51.984;20.956;2023-02-15T00:54:25;44.10;;;19.70;;
65597;SDS011;52267;51.984;20.956;2023-02-15T00:56:52;49.30;;;22.70;;
65597;SDS011;52267;51.984;20.956;2023-02-15T00:59:19;49.00;;;22.50;;
65597;SDS011;52267;51.984;20.956;2023-02-15T01:01:46;45.80;;;22.50;;
65597;SDS011;52267;51.984;20.956;2023-02-15T01:04:13;52.70;;;23.50;;
65597;SDS011;52267;51.984;20.956;2023-02-15T01:06:40;44.70;;;22.20;;
65597;SDS011;52267;51.984;20.956;2023-02-15T01:09:07;44.20;;;21.70;;
65597;SDS011;52267;51.984;20.956;2023-02-15T01:11:34;46.80;;;23.70;;
65597;SDS011;52267;51.984;20.956;2023-02-15T01:14:01;44.60;;;21.70;;
65597;SDS011;52267;51.984;20.956;2023-02-15T01:16:29;47.20;;;22.20;;
65597;SDS011;52267;51.984;20.956;2023-02-15T01:18:57;45.00;;;20.80;;
65597;SDS011;52267;51.984;20.956;2023-02-15T01:21:25;48.60;;;21.70;;
65597;SDS011;52267;51.984;20.956;2023-02-15T01:23:52;45.90;;;21.70;;
65597;SDS011;52267;51.984;20.956;2023-02-15T01:26:20;48.10;;;21.90;;
65597;SDS011;52267;51.984;20.956;2023-02-15T01:28:47;46.20;;;20.70;;
65597;SDS011;52267;51.984;20.956;2023-02-15T01:31:16;43.70;;;20.20;;
65597;SDS011;52267;51.984;20.956;2023-02-15T01:33:46;46.60;;;20.90;;
65597;SDS011;52267;51.984;20.956;2023-02-15T01:36:14;45.80;;;21.10;;
65597;SDS011;52267;51.984;20.956;2023-02-15T01:38:52;44.80;;;21.50;;
65597;SDS011;52267;51.984;20.956;2023-02-15T01:41:19;52.70;;;24.60;;
65597;SDS011;52267;51.984;20.956;2023-02-15T01:43:49;45.60;;;22.50;;
65597;SDS011;52267;51.984;20.956;2023-02-15T01:46:22;45.20;;;21.40;;
65597;SDS011;52267;51.984;20.956;2023-02-15T01:48:55;49.30;;;22.40;;
65597;SDS011;52267;51.984;20.956;2023-02-15T01:51:27;41.70;;;20.60;;
65597;SDS011;52267;51.984;20.956;2023-02-15T01:56:37;43.60;;;21.40;;
65597;SDS011;52267;51.984;20.956;2023-02-15T01:59:10;49.30;;;21.80;;
65597;SDS011;52267;51.984;20.956;2023-02-15T02:01:39;45.90;;;21.40;;
65597;SDS011;52267;51.984;20.956;2023-02-15T02:04:15;47.90;;;22.20;;
65597;SDS011;52267;51.984;20.956;2023-02-15T02:06:46;45.50;;;22.50;;
65597;SDS011;52267;51.984;20.956;2023-02-15T02:09:15;42.30;;;20.00;;
65597;SDS011;52267;51.984;20.956;2023-02-15T02:11:44;43.00;;;21.80;;
65597;SDS011;52267;51.984;20.956;2023-02-15T02:14:13;45.70;;;22.00;;
65597;SDS011;52267;51.984;20.956;2023-02-15T02:16:52;43.20;;;20.30;;
65597;SDS011;52267;51.984;20.956;2023-02-15T02:29:26;54.10;;;28.10;;
65597;SDS011;52267;51.984;20.956;2023-02-15T02:47:05;39.20;;;17.60;;
65597;SDS011;52267;51.984;20.956;2023-02-15T02:49:44;37.40;;;18.10;;
65597;SDS011;52267;51.984;20.956;2023-02-15T02:52:37;33.00;;;15.20;;
65597;SDS011;52267;51.984;20.956;2023-02-15T02:55:23;37.60;;;16.50;;
65597;SDS011;52267;51.984;20.956;2023-02-15T02:58:42;32.90;;;15.70;;
65597;SDS011;52267;51.984;20.956;2023-02-15T03:00:55;34.10;;;14.20;;
65597;SDS011;52267;51.984;20.956;2023-02-15T03:06:18;33.60;;;14.70;;
65597;SDS011;52267;51.984;20.956;2023-02-15T03:08:56;29.10;;;13.50;;
65597;SDS011;52267;51.984;20.956;2023-02-15T03:11:27;30.30;;;14.20;;
65597;SDS011;52267;51.984;20.956;2023-02-15T03:13:54;32.90;;;15.40;;
65597;SDS011;52267;51.984;20.956;2023-02-15T03:16:22;36.00;;;15.20;;
65597;SDS011;52267;51.984;20.956;2023-02-15T03:19:06;28.20;;;13.30;;
65597;SDS011;52267;51.984;20.956;2023-02-15T03:21:50;33.50;;;15.00;;
65597;SDS011;52267;51.984;20.956;2023-02-15T03:24:32;31.60;;;16.40;;
65597;SDS011;52267;51.984;20.956;2023-02-15T03:27:31;33.10;;;15.00;;
65597;SDS011;52267;51.984;20.956;2023-02-15T03:30:02;29.60;;;14.40;;
65597;SDS011;52267;51.984;20.956;2023-02-15T03:32:32;36.30;;;16.00;;
65597;SDS011;52267;51.984;20.956;2023-02-15T03:35:01;29.10;;;14.90;;
65597;SDS011;52267;51.984;20.956;2023-02-15T03:37:41;29.00;;;14.30;;
65597;SDS011;52267;51.984;20.956;2023-02-15T03:40:29;32.20;;;13.40;;
65597;SDS011;52267;51.984;20.956;2023-02-15T03:46:34;30.90;;;14.70;;
65597;SDS011;52267;51.984;20.956;2023-02-15T03:49:17;31.80;;;14.30;;
65597;SDS011;52267;51.984;20.956;2023-02-15T03:51:48;33.90;;;15.40;;
65597;SDS011;52267;51.984;20.956;2023-02-15T03:54:22;33.90;;;15.20;;
65597;SDS011;52267;51.984;20.956;2023-02-15T03:57:27;30.40;;;14.40;;
65597;SDS011;52267;51.984;20.956;2023-02-15T04:00:20;33.00;;;15.30;;
65597;SDS011;52267;51.984;20.956;2023-02-15T04:03:22;32.40;;;14.60;;
65597;SDS011;52267;51.984;20.956;2023-02-15T04:06:09;36.40;;;14.90;;
65597;SDS011;52267;51.984;20.956;2023-02-15T04:08:36;29.90;;;13.20;;
65597;SDS011;52267;51.984;20.956;2023-02-15T04:11:21;32.30;;;14.40;;
65597;SDS011;52267;51.984;20.956;2023-02-15T04:13:48;32.90;;;13.40;;
65597;SDS011;52267;51.984;20.956;2023-02-15T04:16:25;33.50;;;14.40;;
65597;SDS011;52267;51.984;20.956;2023-02-15T04:18:52;30.90;;;13.60;;
65597;SDS011;52267;51.984;20.956;2023-02-15T04:21:37;32.90;;;13.20;;
65597;SDS011;52267;51.984;20.956;2023-02-15T04:24:23;31.80;;;12.50;;
65597;SDS011;52267;51.984;20.956;2023-02-15T04:27:08;34.40;;;12.80;;
65597;SDS011;52267;51.984;20.956;2023-02-15T04:29:38;29.90;;;12.50;;
65597;SDS011;52267;51.984;20.956;2023-02-15T04:32:05;34.40;;;15.20;;
65597;SDS011;52267;51.984;20.956;2023-02-15T04:34:33;30.40;;;11.60;;
65597;SDS011;52267;51.984;20.956;2023-02-15T04:37:00;31.80;;;11.70;;
65597;SDS011;52267;51.984;20.956;2023-02-15T04:39:27;26.60;;;11.50;;
65597;SDS011;52267;51.984;20.956;2023-02-15T04:41:54;30.10;;;13.50;;
65597;SDS011;52267;51.984;20.956;2023-02-15T04:44:21;27.80;;;11.80;;
65597;SDS011;52267;51.984;20.956;2023-02-15T04:46:48;34.60;;;13.10;;
65597;SDS011;52267;51.984;20.956;2023-02-15T04:49:15;29.20;;;12.40;;
65597;SDS011;52267;51.984;20.956;2023-02-15T04:51:42;32.40;;;14.30;;
65597;SDS011;52267;51.984;20.956;2023-02-15T04:54:09;28.40;;;12.00;;
65597;SDS011;52267;51.984;20.956;2023-02-15T04:56:36;29.30;;;12.20;;
65597;SDS011;52267;51.984;20.956;2023-02-15T04:59:04;26.30;;;11.50;;
65597;SDS011;52267;51.984;20.956;2023-02-15T05:01:32;25.70;;;11.80;;
65597;SDS011;52267;51.984;20.956;2023-02-15T05:03:59;23.90;;;11.20;;
65597;SDS011;52267;51.984;20.956;2023-02-15T05:06:26;34.50;;;13.50;;
65597;SDS011;52267;51.984;20.956;2023-02-15T05:08:53;26.30;;;12.10;;
65597;SDS011;52267;51.984;20.956;2023-02-15T05:11:20;33.30;;;13.80;;
65597;SDS011;52267;51.984;20.956;2023-02-15T05:13:48;31.00;;;14.60;;
65597;SDS011;52267;51.984;20.956;2023-02-15T05:16:15;28.80;;;12.40;;
65597;SDS011;52267;51.984;20.956;2023-02-15T05:18:42;33.50;;;14.30;;
65597;SDS011;52267;51.984;20.956;2023-02-15T05:21:09;29.40;;;12.70;;
65597;SDS011;52267;51.984;20.956;2023-02-15T05:23:37;31.70;;;13.80;;
65597;SDS011;52267;51.984;20.956;2023-02-15T05:26:03;32.30;;;14.90;;
65597;SDS011;52267;51.984;20.956;2023-02-15T05:28:49;33.20;;;12.40;;
65597;SDS011;52267;51.984;20.956;2023-02-15T05:31:18;29.10;;;13.20;;
65597;SDS011;52267;51.984;20.956;2023-02-15T05:33:46;31.80;;;14.50;;
65597;SDS011;52267;51.984;20.956;2023-02-15T05:36:13;29.70;;;12.50;;
65597;SDS011;52267;51.984;20.956;2023-02-15T05:38:40;32.90;;;13.90;;
65597;SDS011;52267;51.984;20.956;2023-02-15T05:41:09;39.90;;;16.40;;
65597;SDS011;52267;51.984;20.956;2023-02-15T05:43:38;42.60;;;18.70;;
65597;SDS011;52267;51.984;20.956;2023-02-15T05:46:05;40.30;;;18.90;;
65597;SDS011;52267;51.984;20.956;2023-02-15T05:48:34;38.40;;;16.60;;
65597;SDS011;52267;51.984;20.956;2023-02-15T05:51:04;32.70;;;15.10;;
65597;SDS011;52267;51.984;20.956;2023-02-15T05:53:35;30.70;;;14.60;;
65597;SDS011;52267;51.984;20.956;2023-02-15T05:56:06;31.50;;;14.00;;
65597;SDS011;52267;51.984;20.956;2023-02-15T05:58:36;19.20;;;8.00;;
65597;SDS011;52267;51.984;20.956;2023-02-15T06:01:16;27.40;;;13.50;;
65597;SDS011;52267;51.984;20.956;2023-02-15T06:03:45;27.10;;;11.20;;
65597;SDS011;52267;51.984;20.956;2023-02-15T06:06:12;30.90;;;13.80;;
65597;SDS011;52267;51.984;20.956;2023-02-15T06:08:40;32.80;;;14.90;;
65597;SDS011;52267;51.984;20.956;2023-02-15T06:11:07;32.90;;;15.70;;
65597;SDS011;52267;51.984;20.956;2023-02-15T06:13:35;39.40;;;17.00;;
65597;SDS011;52267;51.984;20.956;2023-02-15T06:16:02;41.80;;;17.10;;
65597;SDS011;52267;51.984;20.956;2023-02-15T06:18:29;39.20;;;17.00;;
65597;SDS011;52267;51.984;20.956;2023-02-15T06:20:56;39.00;;;16.40;;
65597;SDS011;52267;51.984;20.956;2023-02-15T06:23:23;42.10;;;17.40;;
65597;SDS011;52267;51.984;20.956;2023-02-15T06:25:51;42.60;;;18.00;;
65597;SDS011;52267;51.984;20.956;2023-02-15T06:28:18;41.00;;;18.40;;
65597;SDS011;52267;51.984;20.956;2023-02-15T06:30:46;38.30;;;17.00;;
65597;SDS011;52267;51.984;20.956;2023-02-15T06:33:13;38.50;;;17.40;;
65597;SDS011;52267;51.984;20.956;2023-02-15T06:35:40;43.40;;;18.10;;
65597;SDS011;52267;51.984;20.956;2023-02-15T06:38:07;34.30;;;15.80;;
65597;SDS011;52267;51.984;20.956;2023-02-15T06:40:34;38.30;;;17.30;;
65597;SDS011;52267;51.984;20.956;2023-02-15T06:43:01;42.50;;;17.30;;
65597;SDS011;52267;51.984;20.956;2023-02-15T06:45:28;40.40;;;17.80;;
65597;SDS011;52267;51.984;20.956;2023-02-15T06:47:55;42.60;;;18.20;;
65597;SDS011;52267;51.984;20.956;2023-02-15T06:50:22;41.20;;;17.50;;
65597;SDS011;52267;51.984;20.956;2023-02-15T06:52:49;36.60;;;16.70;;
65597;SDS011;52267;51.984;20.956;2023-02-15T06:55:16;45.90;;;17.60;;
65597;SDS011;52267;51.984;20.956;2023-02-15T06:57:43;41.10;;;17.80;;
65597;SDS011;52267;51.984;20.956;2023-02-15T07:00:11;37.00;;;16.00;;
65597;SDS011;52267;51.984;20.956;2023-02-15T07:02:38;42.20;;;17.30;;
65597;SDS011;52267;51.984;20.956;2023-02-15T07:05:06;28.20;;;11.20;;
65597;SDS011;52267;51.984;20.956;2023-02-15T07:07:33;37.50;;;16.10;;
65597;SDS011;52267;51.984;20.956;2023-02-15T07:10:00;32.00;;;13.10;;
65597;SDS011;52267;51.984;20.956;2023-02-15T07:12:27;37.90;;;16.10;;
65597;SDS011;52267;51.984;20.956;2023-02-15T07:15:15;37.00;;;15.40;;
65597;SDS011;52267;51.984;20.956;2023-02-15T07:17:44;40.80;;;18.50;;
65597;SDS011;52267;51.984;20.956;2023-02-15T07:20:14;46.40;;;19.60;;
65597;SDS011;52267;51.984;20.956;2023-02-15T07:22:50;41.30;;;18.20;;
65597;SDS011;52267;51.984;20.956;2023-02-15T07:25:17;41.90;;;16.50;;
65597;SDS011;52267;51.984;20.956;2023-02-15T07:27:45;40.30;;;17.60;;
65597;SDS011;52267;51.984;20.956;2023-02-15T07:30:15;39.50;;;16.60;;
65597;SDS011;52267;51.984;20.956;2023-02-15T07:32:43;37.20;;;15.10;;
65597;SDS011;52267;51.984;20.956;2023-02-15T07:35:29;41.20;;;15.20;;
65597;SDS011;52267;51.984;20.956;2023-02-15T07:37:56;34.70;;;14.00;;
65597;SDS011;52267;51.984;20.956;2023-02-15T07:40:23;36.40;;;14.50;;
65597;SDS011;52267;51.984;20.956;2023-02-15T07:42:51;36.30;;;14.50;;
65597;SDS011;52267;51.984;20.956;2023-02-15T07:45:20;39.20;;;14.80;;
65597;SDS011;52267;51.984;20.956;2023-02-15T07:47:48;20.30;;;9.20;;
65597;SDS011;52267;51.984;20.956;2023-02-15T07:50:15;33.50;;;14.60;;
65597;SDS011;52267;51.984;20.956;2023-02-15T07:52:43;33.80;;;14.60;;
65597;SDS011;52267;51.984;20.956;2023-02-15T07:55:10;38.30;;;16.50;;
65597;SDS011;52267;51.984;20.956;2023-02-15T07:57:46;43.60;;;20.50;;
65597;SDS011;52267;51.984;20.956;2023-02-15T08:00:16;26.30;;;11.60;;
65597;SDS011;52267;51.984;20.956;2023-02-15T08:02:48;35.60;;;14.50;;
65597;SDS011;52267;51.984;20.956;2023-02-15T08:05:35;33.70;;;14.60;;
65597;SDS011;52267;51.984;20.956;2023-02-15T08:08:03;30.80;;;12.10;;
65597;SDS011;52267;51.984;20.956;2023-02-15T08:10:30;26.60;;;11.50;;
65597;SDS011;52267;51.984;20.956;2023-02-15T08:13:16;30.90;;;12.90;;
65597;SDS011;52267;51.984;20.956;2023-02-15T08:15:50;26.50;;;11.60;;
65597;SDS011;52267;51.984;20.956;2023-02-15T08:18:17;35.70;;;16.20;;
65597;SDS011;52267;51.984;20.956;2023-02-15T08:20:51;23.40;;;11.20;;
65597;SDS011;52267;51.984;20.956;2023-02-15T08:23:18;43.20;;;17.90;;
65597;SDS011;52267;51.984;20.956;2023-02-15T08:25:45;37.30;;;19.20;;
65597;SDS011;52267;51.984;20.956;2023-02-15T08:28:13;38.00;;;15.10;;
65597;SDS011;52267;51.984;20.956;2023-02-15T08:30:40;20.70;;;10.20;;
65597;SDS011;52267;51.984;20.956;2023-02-15T08:33:07;32.50;;;13.50;;
65597;SDS011;52267;51.984;20.956;2023-02-15T08:35:36;25.50;;;11.90;;
65597;SDS011;52267;51.984;20.956;2023-02-15T08:38:03;18.50;;;8.20;;
65597;SDS011;52267;51.984;20.956;2023-02-15T08:40:30;25.70;;;9.60;;
65597;SDS011;52267;51.984;20.956;2023-02-15T08:42:57;25.10;;;10.90;;
65597;SDS011;52267;51.984;20.956;2023-02-15T08:45:24;26.60;;;13.30;;
65597;SDS011;52267;51.984;20.956;2023-02-15T08:47:52;31.50;;;13.60;;
65597;SDS011;52267;51.984;20.956;2023-02-15T08:50:19;31.60;;;12.40;;
65597;SDS011;52267;51.984;20.956;2023-02-15T08:52:46;30.70;;;12.90;;
65597;SDS011;52267;51.984;20.956;2023-02-15T08:55:13;32.80;;;14.10;;
65597;SDS011;52267;51.984;20.956;2023-02-15T08:57:40;33.70;;;13.80;;
65597;SDS011;52267;51.984;20.956;2023-02-15T09:00:11;35.10;;;15.80;;
65597;SDS011;52267;51.984;20.956;2023-02-15T09:02:39;37.10;;;15.60;;
65597;SDS011;52267;51.984;20.956;2023-02-15T09:05:06;23.20;;;11.10;;
65597;SDS011;52267;51.984;20.956;2023-02-15T09:07:33;45.40;;;19.10;;
65597;SDS011;52267;51.984;20.956;2023-02-15T09:10:00;46.80;;;19.50;;
65597;SDS011;52267;51.984;20.956;2023-02-15T09:12:27;43.00;;;16.80;;
65597;SDS011;52267;51.984;20.956;2023-02-15T09:14:54;32.10;;;14.40;;
65597;SDS011;52267;51.984;20.956;2023-02-15T09:17:21;40.40;;;18.50;;
65597;SDS011;52267;51.984;20.956;2023-02-15T09:19:48;31.90;;;13.10;;
65597;SDS011;52267;51.984;20.956;2023-02-15T09:22:16;32.70;;;12.90;;
65597;SDS011;52267;51.984;20.956;2023-02-15T09:24:43;27.70;;;12.10;;
65597;SDS011;52267;51.984;20.956;2023-02-15T09:27:10;30.50;;;13.00;;
65597;SDS011;52267;51.984;20.956;2023-02-15T09:29:37;32.10;;;14.50;;
65597;SDS011;52267;51.984;20.956;2023-02-15T09:32:04;25.60;;;10.60;;
65597;SDS011;52267;51.984;20.956;2023-02-15T09:34:32;24.40;;;11.50;;
65597;SDS011;52267;51.984;20.956;2023-02-15T09:36:59;30.50;;;14.00;;
65597;SDS011;52267;51.984;20.956;2023-02-15T09:39:26;34.70;;;15.50;;
65597;SDS011;52267;51.984;20.956;2023-02-15T09:56:06;32.50;;;14.80;;
65597;SDS011;52267;51.984;20.956;2023-02-15T10:02:02;27.30;;;11.70;;
65597;SDS011;52267;51.984;20.956;2023-02-15T10:11:20;24.40;;;11.10;;
65597;SDS011;52267;51.984;20.956;2023-02-15T10:18:01;29.50;;;12.20;;
65597;SDS011;52267;51.984;20.956;2023-02-15T10:29:18;36.20;;;15.40;;
65597;SDS011;52267;51.984;20.956;2023-02-15T10:40:59;38.40;;;15.80;;
65597;SDS011;52267;51.984;20.956;2023-02-15T10:46:54;33.90;;;15.10;;
65597;SDS011;52267;51.984;20.956;2023-02-15T10:55:45;36.60;;;14.80;;
65597;SDS011;52267;51.984;20.956;2023-02-15T11:01:53;27.20;;;12.20;;
65597;SDS011;52267;51.984;20.956;2023-02-15T11:07:06;40.20;;;17.40;;
65597;SDS011;52267;51.984;20.956;2023-02-15T11:09:59;32.80;;;16.60;;
65597;SDS011;52267;51.984;20.956;2023-02-15T11:12:33;37.10;;;17.10;;
65597;SDS011;52267;51.984;20.956;2023-02-15T11:15:25;37.30;;;17.80;;
65597;SDS011;52267;51.984;20.956;2023-02-15T11:23:43;29.50;;;13.00;;
65597;SDS011;52267;51.984;20.956;2023-02-15T11:26:19;23.90;;;12.40;;
65597;SDS011;52267;51.984;20.956;2023-02-15T11:28:57;40.10;;;16.60;;
65597;SDS011;52267;51.984;20.956;2023-02-15T11:31:45;32.60;;;14.20;;
65597;SDS011;52267;51.984;20.956;2023-02-15T11:34:33;30.90;;;14.30;;
65597;SDS011;52267;51.984;20.956;2023-02-15T11:37:08;35.00;;;15.90;;
65597;SDS011;52267;51.984;20.956;2023-02-15T11:39:37;37.40;;;15.40;;
65597;SDS011;52267;51.984;20.956;2023-02-15T11:42:16;25.40;;;11.00;;
65597;SDS011;52267;51.984;20.956;2023-02-15T11:45:07;33.80;;;15.10;;
65597;SDS011;52267;51.984;20.956;2023-02-15T11:47:47;41.30;;;15.60;;
65597;SDS011;52267;51.984;20.956;2023-02-15T11:50:16;26.40;;;11.90;;
65597;SDS011;52267;51.984;20.956;2023-02-15T11:52:50;25.70;;;11.30;;
65597;SDS011;52267;51.984;20.956;2023-02-15T11:55:23;24.50;;;11.20;;
65597;SDS011;52267;51.984;20.956;2023-02-15T11:57:56;25.70;;;11.60;;
65597;SDS011;52267;51.984;20.956;2023-02-15T12:00:32;20.00;;;9.70;;
65597;SDS011;52267;51.984;20.956;2023-02-15T12:03:13;29.50;;;12.30;;
65597;SDS011;52267;51.984;20.956;2023-02-15T12:05:45;27.50;;;13.30;;
65597;SDS011;52267;51.984;20.956;2023-02-15T12:08:17;35.90;;;15.80;;
65597;SDS011;52267;51.984;20.956;2023-02-15T12:10:57;29.70;;;11.70;;
65597;SDS011;52267;51.984;20.956;2023-02-15T12:13:29;33.70;;;15.00;;
65597;SDS011;52267;51.984;20.956;2023-02-15T12:15:58;38.70;;;16.80;;
65597;SDS011;52267;51.984;20.956;2023-02-15T12:18:43;31.00;;;14.40;;
65597;SDS011;52267;51.984;20.956;2023-02-15T12:21:32;41.40;;;17.10;;
65597;SDS011;52267;51.984;20.956;2023-02-15T12:24:08;25.90;;;11.10;;
65597;SDS011;52267;51.984;20.956;2023-02-15T12:26:44;35.60;;;18.00;;
65597;SDS011;52267;51.984;20.956;2023-02-15T12:29:16;34.70;;;14.90;;
65597;SDS011;52267;51.984;20.956;2023-02-15T12:31:45;47.20;;;20.80;;
65597;SDS011;52267;51.984;20.956;2023-02-15T12:34:19;39.50;;;17.00;;
65597;SDS011;52267;51.984;20.956;2023-02-15T12:36:53;40.50;;;17.50;;
65597;SDS011;52267;51.984;20.956;2023-02-15T12:39:27;45.30;;;21.50;;
65597;SDS011;52267;51.984;20.956;2023-02-15T12:44:34;26.00;;;12.20;;
65597;SDS011;52267;51.984;20.956;2023-02-15T12:47:04;32.90;;;14.60;;
65597;SDS011;52267;51.984;20.956;2023-02-15T12:49:34;36.70;;;17.80;;
65597;SDS011;52267;51.984;20.956;2023-02-15T12:52:13;21.00;;;9.20;;
65597;SDS011;52267;51.984;20.956;2023-02-15T12:54:51;39.50;;;18.20;;
65597;SDS011;52267;51.984;20.956;2023-02-15T13:00:00;46.20;;;19.30;;
65597;SDS011;52267;51.984;20.956;2023-02-15T13:02:47;35.80;;;15.60;;
65597;SDS011;52267;51.984;20.956;2023-02-15T13:07:51;21.10;;;9.60;;
65597;SDS011;52267;51.984;20.956;2023-02-15T13:10:35;35.70;;;16.20;;
65597;SDS011;52267;51.984;20.956;2023-02-15T13:13:10;40.80;;;18.20;;
65597;SDS011;52267;51.984;20.956;2023-02-15T13:15:45;30.60;;;12.60;;
65597;SDS011;52267;51.984;20.956;2023-02-15T13:18:33;35.20;;;14.80;;
65597;SDS011;52267;51.984;20.956;2023-02-15T13:21:25;41.20;;;17.60;;
65597;SDS011;52267;51.984;20.956;2023-02-15T13:24:01;40.70;;;17.00;;
65597;SDS011;52267;51.984;20.956;2023-02-15T13:26:34;41.10;;;19.00;;
65597;SDS011;52267;51.984;20.956;2023-02-15T13:29:35;26.80;;;13.10;;
65597;SDS011;52267;51.984;20.956;2023-02-15T13:32:15;43.00;;;19.80;;
65597;SDS011;52267;51.984;20.956;2023-02-15T13:34:54;39.60;;;15.40;;
65597;SDS011;52267;51.984;20.956;2023-02-15T13:38:02;35.30;;;16.10;;
65597;SDS011;52267;51.984;20.956;2023-02-15T13:43:52;25.10;;;11.80;;
65597;SDS011;52267;51.984;20.956;2023-02-15T13:57:40;32.90;;;15.30;;
65597;SDS011;52267;51.984;20.956;2023-02-15T14:01:12;40.40;;;16.00;;
65597;SDS011;52267;51.984;20.956;2023-02-15T14:06:32;33.10;;;14.80;;
65597;SDS011;52267;51.984;20.956;2023-02-15T14:09:32;37.80;;;15.00;;
65597;SDS011;52267;51.984;20.956;2023-02-15T14:18:34;33.90;;;13.90;;
65597;SDS011;52267;51.984;20.956;2023-02-15T14:22:10;29.40;;;13.10;;
65597;SDS011;52267;51.984;20.956;2023-02-15T14:24:23;38.90;;;16.30;;
65597;SDS011;52267;51.984;20.956;2023-02-15T14:30:26;31.50;;;14.00;;
65597;SDS011;52267;51.984;20.956;2023-02-15T14:33:07;39.50;;;17.50;;
65597;SDS011;52267;51.984;20.956;2023-02-15T14:35:41;38.00;;;17.00;;
65597;SDS011;52267;51.984;20.956;2023-02-15T14:38:13;23.50;;;12.10;;
65597;SDS011;52267;51.984;20.956;2023-02-15T14:41:40;30.50;;;14.20;;
65597;SDS011;52267;51.984;20.956;2023-02-15T14:44:30;25.00;;;10.90;;
65597;SDS011;52267;51.984;20.956;2023-02-15T14:47:24;32.80;;;15.50;;
65597;SDS011;52267;51.984;20.956;2023-02-15T14:49:54;40.30;;;17.50;;
65597;SDS011;52267;51.984;20.956;2023-02-15T14:52:21;21.60;;;10.30;;
65597;SDS011;52267;51.984;20.956;2023-02-15T14:59:52;32.30;;;14.50;;
65597;SDS011;52267;51.984;20.956;2023-02-15T15:02:47;30.50;;;14.60;;
65597;SDS011;52267;51.984;20.956;2023-02-15T15:08:03;35.70;;;14.90;;
65597;SDS011;52267;51.984;20.956;2023-02-15T15:10:43;30.60;;;14.40;;
65597;SDS011;52267;51.984;20.956;2023-02-15T15:13:36;28.50;;;15.40;;
65597;SDS011;52267;51.984;20.956;2023-02-15T15:18:58;28.70;;;14.00;;
65597;SDS011;52267;51.984;20.956;2023-02-15T15:32:47;42.30;;;19.80;;
65597;SDS011;52267;51.984;20.956;2023-02-15T15:38:42;39.80;;;18.60;;
65597;SDS011;52267;51.984;20.956;2023-02-15T15:47:00;35.80;;;17.00;;
65597;SDS011;52267;51.984;20.956;2023-02-15T15:49:41;37.20;;;16.50;;
65597;SDS011;52267;51.984;20.956;2023-02-15T15:52:18;39.00;;;18.40;;
65597;SDS011;52267;51.984;20.956;2023-02-15T15:54:50;21.00;;;10.90;;
65597;SDS011;52267;51.984;20.956;2023-02-15T15:57:31;29.30;;;12.80;;
65597;SDS011;52267;51.984;20.956;2023-02-15T16:00:02;25.40;;;11.90;;
65597;SDS011;52267;51.984;20.956;2023-02-15T16:02:30;24.90;;;11.30;;
65597;SDS011;52267;51.984;20.956;2023-02-15T16:05:08;28.70;;;15.00;;
65597;SDS011;52267;51.984;20.956;2023-02-15T16:07:35;29.90;;;14.40;;
65597;SDS011;52267;51.984;20.956;2023-02-15T16:10:23;27.50;;;14.10;;
65597;SDS011;52267;51.984;20.956;2023-02-15T16:12:53;34.80;;;16.50;;
65597;SDS011;52267;51.984;20.956;2023-02-15T16:15:24;39.90;;;18.70;;
65597;SDS011;52267;51.984;20.956;2023-02-15T16:17:55;35.30;;;16.30;;
65597;SDS011;52267;51.984;20.956;2023-02-15T16:29:16;41.70;;;19.70;;
65597;SDS011;52267;51.984;20.956;2023-02-15T16:32:03;34.70;;;16.00;;
65597;SDS011;52267;51.984;20.956;2023-02-15T16:34:32;40.90;;;18.30;;
65597;SDS011;52267;51.984;20.956;2023-02-15T16:37:16;38.30;;;19.40;;
65597;SDS011;52267;51.984;20.956;2023-02-15T16:39:46;35.10;;;15.70;;
65597;SDS011;52267;51.984;20.956;2023-02-15T16:42:16;32.20;;;15.60;;
65597;SDS011;52267;51.984;20.956;2023-02-15T16:45:01;19.20;;;9.00;;
65597;SDS011;52267;51.984;20.956;2023-02-15T16:47:40;19.50;;;9.20;;
65597;SDS011;52267;51.984;20.956;2023-02-15T16:50:18;31.40;;;14.70;;
65597;SDS011;52267;51.984;20.956;2023-02-15T16:52:49;37.50;;;17.60;;
65597;SDS011;52267;51.984;20.956;2023-02-15T16:55:40;36.60;;;16.90;;
65597;SDS011;52267;51.984;20.956;2023-02-15T16:58:15;36.30;;;17.30;;
65597;SDS011;52267;51.984;20.956;2023-02-15T17:00:44;28.60;;;14.60;;
65597;SDS011;52267;51.984;20.956;2023-02-15T17:05:51;40.50;;;20.00;;
65597;SDS011;52267;51.984;20.956;2023-02-15T17:08:36;33.50;;;15.70;;
65597;SDS011;52267;51.984;20.956;2023-02-15T17:11:42;37.80;;;17.30;;
65597;SDS011;52267;51.984;20.956;2023-02-15T17:14:13;43.10;;;19.10;;
65597;SDS011;52267;51.984;20.956;2023-02-15T17:16:50;45.70;;;19.80;;
65597;SDS011;52267;51.984;20.956;2023-02-15T17:19:52;36.00;;;15.70;;
65597;SDS011;52267;51.984;20.956;2023-02-15T17:25:01;39.10;;;18.40;;
65597;SDS011;52267;51.984;20.956;2023-02-15T17:27:32;41.00;;;17.50;;
65597;SDS011;52267;51.984;20.956;2023-02-15T17:30:14;39.30;;;18.00;;
65597;SDS011;52267;51.984;20.956;2023-02-15T17:33:19;39.30;;;19.60;;
65597;SDS011;52267;51.984;20.956;2023-02-15T17:36:12;37.50;;;16.90;;
65597;SDS011;52267;51.984;20.956;2023-02-15T17:39:12;31.40;;;13.60;;
65597;SDS011;52267;51.984;20.956;2023-02-15T17:41:47;39.30;;;18.40;;
65597;SDS011;52267;51.984;20.956;2023-02-15T17:44:15;42.30;;;19.90;;
65597;SDS011;52267;51.984;20.956;2023-02-15T17:46:47;26.30;;;12.40;;
65597;SDS011;52267;51.984;20.956;2023-02-15T17:49:24;42.20;;;19.70;;